sensor_id;sensor_type;location;lat;lon;timestamp;pressure;altitude;pressure_sealevel;temperature
40047;BMP280;31510;48.122;11.576;2022-08-19T00:01:27;95195.53;;;19.64
40047;BMP280;31510;48.122;11.576;2022-08-19T00:03:55;95201.97;;;19.61
40047;BMP280;31510;48.122;11.576;2022-08-19T00:06:20;95212.81;;;19.61
40047;BMP280;31510;48.122;11.576;2022-08-19T00:08:45;95206.13;;;19.62
40047;BMP280;31510;48.122;11.576;2022-08-19T00:11:19;95193.66;;;19.60
40047;BMP280;31510;48.122;11.576;2022-08-19T00:13:47;95188.97;;;19.60
40047;BMP280;31510;48.122;11.576;2022-08-19T00:16:16;95183.56;;;19.60
40047;BMP280;31510;48.122;11.576;2022-08-19T00:18:44;95173.03;;;19.57
40047;BMP280;31510;48.122;11.576;2022-08-19T00:21:09;95162.50;;;19.53
40047;BMP280;31510;48.122;11.576;2022-08-19T00:23:36;95162.22;;;19.57
40047;BMP280;31510;48.122;11.576;2022-08-19T00:26:04;95151.63;;;19.59
40047;BMP280;31510;48.122;11.576;2022-08-19T00:28:34;95143.72;;;19.60
40047;BMP280;31510;48.122;11.576;2022-08-19T00:31:03;95138.53;;;19.62
40047;BMP280;31510;48.122;11.576;2022-08-19T00:33:30;95145.91;;;19.62
40047;BMP280;31510;48.122;11.576;2022-08-19T00:36:05;95138.53;;;19.62
40047;BMP280;31510;48.122;11.576;2022-08-19T00:38:31;95154.03;;;19.62
40047;BMP280;31510;48.122;11.576;2022-08-19T00:40:57;95158.50;;;19.60
40047;BMP280;31510;48.122;11.576;2022-08-19T00:43:27;95157.25;;;19.60
40047;BMP280;31510;48.122;11.576;2022-08-19T00:45:54;95157.47;;;19.62
40047;BMP280;31510;48.122;11.576;2022-08-19T00:48:21;95142.94;;;19.65
40047;BMP280;31510;48.122;11.576;2022-08-19T00:50:49;95138.75;;;19.64
40047;BMP280;31510;48.122;11.576;2022-08-19T00:53:16;95122.53;;;19.64
40047;BMP280;31510;48.122;11.576;2022-08-19T00:55:58;95113.25;;;19.60
40047;BMP280;31510;48.122;11.576;2022-08-19T00:58:30;95116.25;;;19.57
40047;BMP280;31510;48.122;11.576;2022-08-19T01:00:57;95117.97;;;19.54
40047;BMP280;31510;48.122;11.576;2022-08-19T01:03:23;95125.13;;;19.52
40047;BMP280;31510;48.122;11.576;2022-08-19T01:05:50;95131.06;;;19.50
40047;BMP280;31510;48.122;11.576;2022-08-19T01:08:17;95120.97;;;19.51
40047;BMP280;31510;48.122;11.576;2022-08-19T01:10:47;95121.22;;;19.53
40047;BMP280;31510;48.122;11.576;2022-08-19T01:13:19;95104.97;;;19.53
40047;BMP280;31510;48.122;11.576;2022-08-19T01:15:51;95111.63;;;19.52
40047;BMP280;31510;48.122;11.576;2022-08-19T01:18:19;95107.69;;;19.53
40047;BMP280;31510;48.122;11.576;2022-08-19T01:20:45;95104.22;;;19.52
40047;BMP280;31510;48.122;11.576;2022-08-19T01:23:11;95113.66;;;19.46
40047;BMP280;31510;48.122;11.576;2022-08-19T01:25:54;95116.44;;;19.40
40047;BMP280;31510;48.122;11.576;2022-08-19T01:28:26;95124.81;;;19.37
40047;BMP280;31510;48.122;11.576;2022-08-19T01:30:52;95131.75;;;19.32
40047;BMP280;31510;48.122;11.576;2022-08-19T01:33:19;95145.03;;;19.30
40047;BMP280;31510;48.122;11.576;2022-08-19T01:35:45;95157.81;;;19.30
40047;BMP280;31510;48.122;11.576;2022-08-19T01:38:23;95177.97;;;19.29
40047;BMP280;31510;48.122;11.576;2022-08-19T01:40:49;95166.72;;;19.25
40047;BMP280;31510;48.122;11.576;2022-08-19T01:43:14;95170.19;;;19.20
40047;BMP280;31510;48.122;11.576;2022-08-19T01:45:43;95163.84;;;19.18
40047;BMP280;31510;48.122;11.576;2022-08-19T01:48:18;95166.28;;;19.16
40047;BMP280;31510;48.122;11.576;2022-08-19T01:50:46;95169.00;;;19.16
40047;BMP280;31510;48.122;11.576;2022-08-19T01:53:13;95170.25;;;19.15
40047;BMP280;31510;48.122;11.576;2022-08-19T01:55:51;95176.41;;;19.10
40047;BMP280;31510;48.122;11.576;2022-08-19T01:58:19;95179.13;;;19.10
40047;BMP280;31510;48.122;11.576;2022-08-19T02:00:46;95168.81;;;19.08
40047;BMP280;31510;48.122;11.576;2022-08-19T02:03:12;95172.53;;;19.05
40047;BMP280;31510;48.122;11.576;2022-08-19T02:05:38;95159.75;;;19.06
40047;BMP280;31510;48.122;11.576;2022-08-19T02:08:04;95172.78;;;19.07
40047;BMP280;31510;48.122;11.576;2022-08-19T02:10:33;95165.63;;;19.10
40047;BMP280;31510;48.122;11.576;2022-08-19T02:13:04;95176.66;;;19.12
40047;BMP280;31510;48.122;11.576;2022-08-19T02:15:29;95187.00;;;19.08
40047;BMP280;31510;48.122;11.576;2022-08-19T02:17:55;95185.06;;;19.03
40047;BMP280;31510;48.122;11.576;2022-08-19T02:20:20;95193.44;;;18.99
40047;BMP280;31510;48.122;11.576;2022-08-19T02:22:45;95186.34;;;18.96
40047;BMP280;31510;48.122;11.576;2022-08-19T02:25:15;95185.09;;;18.97
40047;BMP280;31510;48.122;11.576;2022-08-19T02:27:41;95195.66;;;19.01
40047;BMP280;31510;48.122;11.576;2022-08-19T02:30:09;95196.16;;;18.99
40047;BMP280;31510;48.122;11.576;2022-08-19T02:32:35;95195.44;;;18.99
40047;BMP280;31510;48.122;11.576;2022-08-19T02:35:01;95195.66;;;19.01
40047;BMP280;31510;48.122;11.576;2022-08-19T02:37:26;95190.75;;;18.99
40047;BMP280;31510;48.122;11.576;2022-08-19T02:40:14;95178.50;;;18.98
40047;BMP280;31510;48.122;11.576;2022-08-19T02:42:43;95170.63;;;19.00
40047;BMP280;31510;48.122;11.576;2022-08-19T02:45:09;95151.72;;;19.00
40047;BMP280;31510;48.122;11.576;2022-08-19T02:47:34;95125.41;;;19.01
40047;BMP280;31510;48.122;11.576;2022-08-19T02:50:02;95124.91;;;19.02
40047;BMP280;31510;48.122;11.576;2022-08-19T02:52:27;95124.19;;;19.02
40047;BMP280;31510;48.122;11.576;2022-08-19T02:54:53;95122.72;;;19.01
40047;BMP280;31510;48.122;11.576;2022-08-19T02:57:25;95120.72;;;19.01
40047;BMP280;31510;48.122;11.576;2022-08-19T02:59:56;95123.22;;;18.99
40047;BMP280;31510;48.122;11.576;2022-08-19T03:02:23;95120.50;;;18.99
40047;BMP280;31510;48.122;11.576;2022-08-19T03:04:49;95128.84;;;19.01
40047;BMP280;31510;48.122;11.576;2022-08-19T03:07:16;95132.03;;;19.00
40047;BMP280;31510;48.122;11.576;2022-08-19T03:09:41;95125.63;;;19.03
40047;BMP280;31510;48.122;11.576;2022-08-19T03:12:10;95137.91;;;19.04
40047;BMP280;31510;48.122;11.576;2022-08-19T03:14:36;95140.84;;;19.06
40047;BMP280;31510;48.122;11.576;2022-08-19T03:17:03;95134.19;;;19.07
40047;BMP280;31510;48.122;11.576;2022-08-19T03:19:29;95134.94;;;19.07
40047;BMP280;31510;48.122;11.576;2022-08-19T03:21:56;95134.19;;;19.07
40047;BMP280;31510;48.122;11.576;2022-08-19T03:24:23;95154.34;;;19.06
40047;BMP280;31510;48.122;11.576;2022-08-19T03:26:50;95164.94;;;19.04
40047;BMP280;31510;48.122;11.576;2022-08-19T03:29:21;95151.22;;;19.02
40047;BMP280;31510;48.122;11.576;2022-08-19T03:31:48;95153.91;;;19.02
40047;BMP280;31510;48.122;11.576;2022-08-19T03:34:20;95157.34;;;19.02
40047;BMP280;31510;48.122;11.576;2022-08-19T03:36:46;95157.28;;;19.08
40047;BMP280;31510;48.122;11.576;2022-08-19T03:39:16;95154.09;;;19.09
40047;BMP280;31510;48.122;11.576;2022-08-19T03:41:48;95154.03;;;19.15
40047;BMP280;31510;48.122;11.576;2022-08-19T03:44:18;95150.81;;;19.16
40047;BMP280;31510;48.122;11.576;2022-08-19T03:46:50;95151.53;;;19.17
40047;BMP280;31510;48.122;11.576;2022-08-19T03:49:16;95150.81;;;19.16
40047;BMP280;31510;48.122;11.576;2022-08-19T03:51:42;95153.59;;;19.11
40047;BMP280;31510;48.122;11.576;2022-08-19T03:54:11;95160.72;;;19.08
40047;BMP280;31510;48.122;11.576;2022-08-19T03:56:39;95153.84;;;19.07
40047;BMP280;31510;48.122;11.576;2022-08-19T03:59:11;95150.41;;;19.07
40047;BMP280;31510;48.122;11.576;2022-08-19T04:01:39;95148.44;;;19.07
40047;BMP280;31510;48.122;11.576;2022-08-19T04:04:05;95153.09;;;19.07
40047;BMP280;31510;48.122;11.576;2022-08-19T04:06:32;95147.19;;;19.08
40047;BMP280;31510;48.122;11.576;2022-08-19T04:09:00;95143.28;;;19.09
40047;BMP280;31510;48.122;11.576;2022-08-19T04:11:29;95137.16;;;19.09
40047;BMP280;31510;48.122;11.576;2022-08-19T04:13:55;95142.56;;;19.09
40047;BMP280;31510;48.122;11.576;2022-08-19T04:16:24;95137.16;;;19.09
40047;BMP280;31510;48.122;11.576;2022-08-19T04:18:50;95139.59;;;19.07
40047;BMP280;31510;48.122;11.576;2022-08-19T04:21:18;95146.25;;;19.06
40047;BMP280;31510;48.122;11.576;2022-08-19T04:23:44;95154.84;;;19.04
40047;BMP280;31510;48.122;11.576;2022-08-19T04:26:18;95146.47;;;19.08
40047;BMP280;31510;48.122;11.576;2022-08-19T04:28:44;95149.91;;;19.08
40047;BMP280;31510;48.122;11.576;2022-08-19T04:31:18;95154.31;;;19.11
40047;BMP280;31510;48.122;11.576;2022-08-19T04:33:43;95159.94;;;19.13
40047;BMP280;31510;48.122;11.576;2022-08-19T04:36:20;95173.66;;;19.15
40047;BMP280;31510;48.122;11.576;2022-08-19T04:38:52;95171.19;;;19.17
40047;BMP280;31510;48.122;11.576;2022-08-19T04:41:18;95183.97;;;19.17
40047;BMP280;31510;48.122;11.576;2022-08-19T04:44:01;95182.75;;;19.18
40047;BMP280;31510;48.122;11.576;2022-08-19T04:46:27;95195.00;;;19.19
40047;BMP280;31510;48.122;11.576;2022-08-19T04:48:55;95193.03;;;19.19
40047;BMP280;31510;48.122;11.576;2022-08-19T04:51:22;95197.72;;;19.19
40047;BMP280;31510;48.122;11.576;2022-08-19T04:53:48;95202.41;;;19.18
40047;BMP280;31510;48.122;11.576;2022-08-19T04:56:18;95201.66;;;19.18
40047;BMP280;31510;48.122;11.576;2022-08-19T04:58:48;95202.16;;;19.16
40047;BMP280;31510;48.122;11.576;2022-08-19T05:01:28;95201.66;;;19.18
40047;BMP280;31510;48.122;11.576;2022-08-19T05:03:55;95208.34;;;19.11
40047;BMP280;31510;48.122;11.576;2022-08-19T05:06:22;95209.63;;;19.05
40047;BMP280;31510;48.122;11.576;2022-08-19T05:08:51;95208.44;;;19.00
40047;BMP280;31510;48.122;11.576;2022-08-19T05:11:26;95215.81;;;18.94
40047;BMP280;31510;48.122;11.576;2022-08-19T05:13:55;95220.25;;;18.92
40047;BMP280;31510;48.122;11.576;2022-08-19T05:16:22;95216.34;;;18.87
40047;BMP280;31510;48.122;11.576;2022-08-19T05:18:49;95212.91;;;18.87
40047;BMP280;31510;48.122;11.576;2022-08-19T05:21:33;95214.66;;;18.84
40047;BMP280;31510;48.122;11.576;2022-08-19T05:24:17;95215.63;;;18.87
40047;BMP280;31510;48.122;11.576;2022-08-19T05:26:55;95217.09;;;18.88
40047;BMP280;31510;48.122;11.576;2022-08-19T05:29:25;95204.09;;;18.86
40047;BMP280;31510;48.122;11.576;2022-08-19T05:31:52;95198.91;;;18.88
40047;BMP280;31510;48.122;11.576;2022-08-19T05:34:19;95191.25;;;18.92
40047;BMP280;31510;48.122;11.576;2022-08-19T05:36:47;95195.19;;;18.97
40047;BMP280;31510;48.122;11.576;2022-08-19T05:39:19;95192.47;;;19.02
40047;BMP280;31510;48.122;11.576;2022-08-19T05:41:55;95190.22;;;19.06
40047;BMP280;31510;48.122;11.576;2022-08-19T05:44:25;95192.91;;;19.06
40047;BMP280;31510;48.122;11.576;2022-08-19T05:46:52;95180.88;;;19.07
40047;BMP280;31510;48.122;11.576;2022-08-19T05:49:19;95189.22;;;19.09
40047;BMP280;31510;48.122;11.576;2022-08-19T05:51:45;95189.66;;;19.13
40047;BMP280;31510;48.122;11.576;2022-08-19T05:54:10;95187.44;;;19.12
40047;BMP280;31510;48.122;11.576;2022-08-19T05:56:42;95184.03;;;19.11
40047;BMP280;31510;48.122;11.576;2022-08-19T05:59:09;95193.59;;;19.12
40047;BMP280;31510;48.122;11.576;2022-08-19T06:01:41;95195.28;;;19.15
40047;BMP280;31510;48.122;11.576;2022-08-19T06:04:07;95204.38;;;19.18
40047;BMP280;31510;48.122;11.576;2022-08-19T06:06:33;95189.81;;;19.20
40047;BMP280;31510;48.122;11.576;2022-08-19T06:09:04;95195.22;;;19.20
40047;BMP280;31510;48.122;11.576;2022-08-19T06:14:07;95201.41;;;19.21
40047;BMP280;31510;48.122;11.576;2022-08-19T06:16:37;95204.53;;;19.25
40047;BMP280;31510;48.122;11.576;2022-08-19T06:19:12;95215.59;;;19.27
40047;BMP280;31510;48.122;11.576;2022-08-19T06:21:39;95202.84;;;19.22
40047;BMP280;31510;48.122;11.576;2022-08-19T06:24:07;95217.09;;;19.22
40047;BMP280;31510;48.122;11.576;2022-08-19T06:26:38;95215.13;;;19.23
40047;BMP280;31510;48.122;11.576;2022-08-19T06:29:04;95213.38;;;19.25
40047;BMP280;31510;48.122;11.576;2022-08-19T06:31:31;95208.69;;;19.26
40047;BMP280;31510;48.122;11.576;2022-08-19T06:34:02;95204.53;;;19.25
40047;BMP280;31510;48.122;11.576;2022-08-19T06:36:34;95193.72;;;19.25
40047;BMP280;31510;48.122;11.576;2022-08-19T06:39:11;95200.59;;;19.26
40047;BMP280;31510;48.122;11.576;2022-08-19T06:41:43;95209.94;;;19.25
40047;BMP280;31510;48.122;11.576;2022-08-19T06:44:11;95207.97;;;19.25
40047;BMP280;31510;48.122;11.576;2022-08-19T06:46:38;95212.88;;;19.27
40047;BMP280;31510;48.122;11.576;2022-08-19T06:49:05;95207.25;;;19.25
40047;BMP280;31510;48.122;11.576;2022-08-19T06:51:34;95208.69;;;19.26
40047;BMP280;31510;48.122;11.576;2022-08-19T06:53:59;95213.09;;;19.29
40047;BMP280;31510;48.122;11.576;2022-08-19T06:56:28;95204.00;;;19.32
40047;BMP280;31510;48.122;11.576;2022-08-19T06:59:17;95212.56;;;19.36
40047;BMP280;31510;48.122;11.576;2022-08-19T07:01:51;95204.66;;;19.38
40047;BMP280;31510;48.122;11.576;2022-08-19T07:04:21;95200.50;;;19.37
40047;BMP280;31510;48.122;11.576;2022-08-19T07:06:47;95206.19;;;19.33
40047;BMP280;31510;48.122;11.576;2022-08-19T07:09:15;95200.03;;;19.33
40047;BMP280;31510;48.122;11.576;2022-08-19T07:11:45;95198.59;;;19.32
40047;BMP280;31510;48.122;11.576;2022-08-19T07:14:16;95191.94;;;19.33
40047;BMP280;31510;48.122;11.576;2022-08-19T07:16:47;95187.78;;;19.32
40047;BMP280;31510;48.122;11.576;2022-08-19T07:19:13;95180.66;;;19.29
40047;BMP280;31510;48.122;11.576;2022-08-19T07:21:39;95185.84;;;19.27
40047;BMP280;31510;48.122;11.576;2022-08-19T07:24:05;95174.31;;;19.26
40047;BMP280;31510;48.122;11.576;2022-08-19T07:26:33;95169.63;;;19.27
40047;BMP280;31510;48.122;11.576;2022-08-19T07:29:04;95160.03;;;19.26
40047;BMP280;31510;48.122;11.576;2022-08-19T07:31:29;95155.84;;;19.30
40047;BMP280;31510;48.122;11.576;2022-08-19T07:33:56;95155.78;;;19.36
40047;BMP280;31510;48.122;11.576;2022-08-19T07:36:27;95161.34;;;19.43
40047;BMP280;31510;48.122;11.576;2022-08-19T07:38:58;95151.50;;;19.46
40047;BMP280;31510;48.122;11.576;2022-08-19T07:41:25;95154.94;;;19.46
40047;BMP280;31510;48.122;11.576;2022-08-19T07:43:54;95159.63;;;19.46
40047;BMP280;31510;48.122;11.576;2022-08-19T07:46:20;95168.69;;;19.48
40047;BMP280;31510;48.122;11.576;2022-08-19T07:48:47;95166.19;;;19.50
40047;BMP280;31510;48.122;11.576;2022-08-19T07:51:18;95179.44;;;19.54
40047;BMP280;31510;48.122;11.576;2022-08-19T07:53:44;95179.44;;;19.54
40047;BMP280;31510;48.122;11.576;2022-08-19T07:56:11;95185.84;;;19.51
40047;BMP280;31510;48.122;11.576;2022-08-19T07:58:39;95185.63;;;19.49
40047;BMP280;31510;48.122;11.576;2022-08-19T08:01:06;95185.63;;;19.49
40047;BMP280;31510;48.122;11.576;2022-08-19T08:03:31;95172.09;;;19.49
40047;BMP280;31510;48.122;11.576;2022-08-19T08:06:15;95189.81;;;19.50
40047;BMP280;31510;48.122;11.576;2022-08-19T08:09:00;95191.50;;;19.53
40047;BMP280;31510;48.122;11.576;2022-08-19T08:11:50;95192.44;;;19.55
40047;BMP280;31510;48.122;11.576;2022-08-19T08:14:23;95193.19;;;19.56
40047;BMP280;31510;48.122;11.576;2022-08-19T08:16:50;95195.38;;;19.57
40047;BMP280;31510;48.122;11.576;2022-08-19T08:19:18;95198.31;;;19.59
40047;BMP280;31510;48.122;11.576;2022-08-19T08:21:44;95189.91;;;19.62
40047;BMP280;31510;48.122;11.576;2022-08-19T08:24:10;95194.09;;;19.63
40047;BMP280;31510;48.122;11.576;2022-08-19T08:26:39;95190.63;;;19.63
40047;BMP280;31510;48.122;11.576;2022-08-19T08:29:04;95189.91;;;19.62
40047;BMP280;31510;48.122;11.576;2022-08-19T08:31:30;95198.75;;;19.63
40047;BMP280;31510;48.122;11.576;2022-08-19T08:33:55;95207.41;;;19.61
40047;BMP280;31510;48.122;11.576;2022-08-19T08:36:21;95209.34;;;19.61
40047;BMP280;31510;48.122;11.576;2022-08-19T08:38:46;95208.63;;;19.60
40047;BMP280;31510;48.122;11.576;2022-08-19T08:41:34;95216.50;;;19.59
40047;BMP280;31510;48.122;11.576;2022-08-19T08:43:57;95216.97;;;19.62
40047;BMP280;31510;48.122;11.576;2022-08-19T08:46:39;95218.22;;;19.61
40047;BMP280;31510;48.122;11.576;2022-08-19T08:51:54;95225.56;;;19.61
40047;BMP280;31510;48.122;11.576;2022-08-19T08:54:30;95228.00;;;19.64
40047;BMP280;31510;48.122;11.576;2022-08-19T08:57:12;95229.47;;;19.65
40047;BMP280;31510;48.122;11.576;2022-08-19T08:59:43;95232.69;;;19.64
40047;BMP280;31510;48.122;11.576;2022-08-19T09:02:09;95228.06;;;19.59
40047;BMP280;31510;48.122;11.576;2022-08-19T09:04:36;95246.03;;;19.57
40047;BMP280;31510;48.122;11.576;2022-08-19T09:09:49;95238.88;;;19.59
40047;BMP280;31510;48.122;11.576;2022-08-19T09:15:05;95235.22;;;19.57
40047;BMP280;31510;48.122;11.576;2022-08-19T09:17:31;95231.03;;;19.56
40047;BMP280;31510;48.122;11.576;2022-08-19T09:20:20;95232.06;;;19.53
40047;BMP280;31510;48.122;11.576;2022-08-19T09:22:46;95234.53;;;19.51
40047;BMP280;31510;48.122;11.576;2022-08-19T09:25:25;95231.81;;;19.51
40047;BMP280;31510;48.122;11.576;2022-08-19T09:27:54;95231.81;;;19.51
40047;BMP280;31510;48.122;11.576;2022-08-19T09:30:26;95237.97;;;19.51
40047;BMP280;31510;48.122;11.576;2022-08-19T09:32:53;95234.25;;;19.54
40047;BMP280;31510;48.122;11.576;2022-08-19T09:35:21;95235.72;;;19.55
40047;BMP280;31510;48.122;11.576;2022-08-19T09:37:47;95232.56;;;19.51
40047;BMP280;31510;48.122;11.576;2022-08-19T09:40:18;95230.66;;;19.46
40047;BMP280;31510;48.122;11.576;2022-08-19T09:42:46;95231.16;;;19.45
40047;BMP280;31510;48.122;11.576;2022-08-19T09:45:16;95228.88;;;19.49
40047;BMP280;31510;48.122;11.576;2022-08-19T09:47:42;95222.19;;;19.55
40047;BMP280;31510;48.122;11.576;2022-08-19T09:50:10;95222.66;;;19.59
40047;BMP280;31510;48.122;11.576;2022-08-19T09:52:36;95216.44;;;19.64
40047;BMP280;31510;48.122;11.576;2022-08-19T09:55:07;95226.50;;;19.69
40047;BMP280;31510;48.122;11.576;2022-08-19T09:57:33;95224.22;;;19.73
40047;BMP280;31510;48.122;11.576;2022-08-19T09:59:58;95228.41;;;19.74
40047;BMP280;31510;48.122;11.576;2022-08-19T10:02:24;95235.31;;;19.69
40047;BMP280;31510;48.122;11.576;2022-08-19T10:04:50;95245.91;;;19.67
40047;BMP280;31510;48.122;11.576;2022-08-19T10:07:34;95247.16;;;19.66
40047;BMP280;31510;48.122;11.576;2022-08-19T10:10:04;95247.44;;;19.63
40047;BMP280;31510;48.122;11.576;2022-08-19T10:12:36;95242.00;;;19.68
40047;BMP280;31510;48.122;11.576;2022-08-19T10:15:07;95236.03;;;19.75
40047;BMP280;31510;48.122;11.576;2022-08-19T10:17:33;95243.81;;;19.84
40047;BMP280;31510;48.122;11.576;2022-08-19T10:20:00;95236.88;;;19.89
40047;BMP280;31510;48.122;11.576;2022-08-19T10:22:27;95231.84;;;19.98
40047;BMP280;31510;48.122;11.576;2022-08-19T10:24:53;95231.28;;;20.05
40047;BMP280;31510;48.122;11.576;2022-08-19T10:27:18;95225.75;;;20.16
40047;BMP280;31510;48.122;11.576;2022-08-19T10:29:43;95232.53;;;20.22
40047;BMP280;31510;48.122;11.576;2022-08-19T10:32:09;95226.56;;;20.29
40047;BMP280;31510;48.122;11.576;2022-08-19T10:34:36;95221.28;;;20.37
40047;BMP280;31510;48.122;11.576;2022-08-19T10:37:03;95222.19;;;20.44
40047;BMP280;31510;48.122;11.576;2022-08-19T10:39:33;95213.47;;;20.51
40047;BMP280;31510;48.122;11.576;2022-08-19T10:41:59;95213.56;;;20.64
40047;BMP280;31510;48.122;11.576;2022-08-19T10:44:24;95214.22;;;20.70
40047;BMP280;31510;48.122;11.576;2022-08-19T10:46:50;95213.25;;;20.68
40047;BMP280;31510;48.122;11.576;2022-08-19T10:49:17;95214.53;;;20.67
40047;BMP280;31510;48.122;11.576;2022-08-19T10:51:44;95221.31;;;20.73
40047;BMP280;31510;48.122;11.576;2022-08-19T10:54:28;95205.47;;;20.77
40047;BMP280;31510;48.122;11.576;2022-08-19T10:57:15;95215.28;;;20.80
40047;BMP280;31510;48.122;11.576;2022-08-19T10:59:41;95209.56;;;20.83
40047;BMP280;31510;48.122;11.576;2022-08-19T11:02:09;95220.53;;;20.91
40047;BMP280;31510;48.122;11.576;2022-08-19T11:04:36;95207.22;;;20.93
40047;BMP280;31510;48.122;11.576;2022-08-19T11:07:03;95209.09;;;20.98
40047;BMP280;31510;48.122;11.576;2022-08-19T11:09:28;95206.84;;;21.02
40047;BMP280;31510;48.122;11.576;2022-08-19T11:11:54;95208.50;;;21.05
40047;BMP280;31510;48.122;11.576;2022-08-19T11:14:22;95201.56;;;21.09
40047;BMP280;31510;48.122;11.576;2022-08-19T11:16:49;95197.78;;;21.12
40047;BMP280;31510;48.122;11.576;2022-08-19T11:19:15;95198.25;;;21.16
40047;BMP280;31510;48.122;11.576;2022-08-19T11:21:45;95192.16;;;21.10
40047;BMP280;31510;48.122;11.576;2022-08-19T11:24:15;95193.72;;;21.06
40047;BMP280;31510;48.122;11.576;2022-08-19T11:26:42;95201.19;;;21.00
40047;BMP280;31510;48.122;11.576;2022-08-19T11:29:09;95204.19;;;20.96
40047;BMP280;31510;48.122;11.576;2022-08-19T11:31:43;95200.47;;;20.99
40047;BMP280;31510;48.122;11.576;2022-08-19T11:34:12;95205.06;;;21.04
40047;BMP280;31510;48.122;11.576;2022-08-19T11:36:39;95208.72;;;21.07
40047;BMP280;31510;48.122;11.576;2022-08-19T11:39:06;95195.69;;;21.05
40047;BMP280;31510;48.122;11.576;2022-08-19T11:41:33;95205.06;;;21.04
40047;BMP280;31510;48.122;11.576;2022-08-19T11:43:58;95198.72;;;21.02
40047;BMP280;31510;48.122;11.576;2022-08-19T11:46:25;95198.19;;;21.03
40047;BMP280;31510;48.122;11.576;2022-08-19T11:48:53;95206.84;;;21.02
40047;BMP280;31510;48.122;11.576;2022-08-19T11:51:22;95199.97;;;21.01
40047;BMP280;31510;48.122;11.576;2022-08-19T11:53:48;95199.03;;;20.98
40047;BMP280;31510;48.122;11.576;2022-08-19T11:56:14;95194.53;;;21.01
40047;BMP280;31510;48.122;11.576;2022-08-19T11:58:40;95200.69;;;21.01
40047;BMP280;31510;48.122;11.576;2022-08-19T12:01:09;95205.88;;;20.99
40047;BMP280;31510;48.122;11.576;2022-08-19T12:03:36;95202.75;;;20.95
40047;BMP280;31510;48.122;11.576;2022-08-19T12:06:06;95215.03;;;20.96
40047;BMP280;31510;48.122;11.576;2022-08-19T12:08:32;95214.09;;;20.94
40047;BMP280;31510;48.122;11.576;2022-08-19T12:10:57;95215.88;;;20.91
40047;BMP280;31510;48.122;11.576;2022-08-19T12:13:23;95211.47;;;20.88
40047;BMP280;31510;48.122;11.576;2022-08-19T12:15:49;95218.44;;;20.84
40047;BMP280;31510;48.122;11.576;2022-08-19T12:18:14;95220.13;;;20.87
40047;BMP280;31510;48.122;11.576;2022-08-19T12:20:42;95221.00;;;20.95
40047;BMP280;31510;48.122;11.576;2022-08-19T12:23:09;95231.66;;;21.06
40047;BMP280;31510;48.122;11.576;2022-08-19T12:25:36;95234.00;;;21.15
40047;BMP280;31510;48.122;11.576;2022-08-19T12:28:02;95235.88;;;21.20
40047;BMP280;31510;48.122;11.576;2022-08-19T12:30:27;95230.00;;;21.16
40047;BMP280;31510;48.122;11.576;2022-08-19T12:32:53;95234.06;;;21.09
40047;BMP280;31510;48.122;11.576;2022-08-19T12:35:19;95229.03;;;21.00
40047;BMP280;31510;48.122;11.576;2022-08-19T12:37:46;95221.44;;;20.99
40047;BMP280;31510;48.122;11.576;2022-08-19T12:40:12;95236.22;;;20.98
40047;BMP280;31510;48.122;11.576;2022-08-19T12:42:38;95234.00;;;20.96
40047;BMP280;31510;48.122;11.576;2022-08-19T12:45:11;95228.53;;;21.02
40047;BMP280;31510;48.122;11.576;2022-08-19T12:47:37;95230.31;;;21.12
40047;BMP280;31510;48.122;11.576;2022-08-19T12:50:03;95227.97;;;21.22
40047;BMP280;31510;48.122;11.576;2022-08-19T12:52:29;95234.75;;;21.28
40047;BMP280;31510;48.122;11.576;2022-08-19T12:54:56;95239.34;;;21.33
40047;BMP280;31510;48.122;11.576;2022-08-19T12:57:27;95243.75;;;21.36
40047;BMP280;31510;48.122;11.576;2022-08-19T12:59:53;95233.31;;;21.40
40047;BMP280;31510;48.122;11.576;2022-08-19T13:02:19;95234.94;;;21.48
40047;BMP280;31510;48.122;11.576;2022-08-19T13:04:44;95244.88;;;21.59
40047;BMP280;31510;48.122;11.576;2022-08-19T13:09:41;95228.53;;;21.90
40047;BMP280;31510;48.122;11.576;2022-08-19T13:12:07;95235.53;;;22.11
40047;BMP280;31510;48.122;11.576;2022-08-19T13:14:38;95236.38;;;22.19
40047;BMP280;31510;48.122;11.576;2022-08-19T13:17:03;95230.31;;;22.26
40047;BMP280;31510;48.122;11.576;2022-08-19T13:19:28;95227.03;;;22.40
40047;BMP280;31510;48.122;11.576;2022-08-19T13:21:55;95225.88;;;22.48
40047;BMP280;31510;48.122;11.576;2022-08-19T13:24:20;95224.84;;;22.51
40047;BMP280;31510;48.122;11.576;2022-08-19T13:26:46;95208.94;;;22.55
40047;BMP280;31510;48.122;11.576;2022-08-19T13:29:11;95215.41;;;22.65
40047;BMP280;31510;48.122;11.576;2022-08-19T13:31:55;95208.38;;;22.70
40047;BMP280;31510;48.122;11.576;2022-08-19T13:34:39;95218.59;;;22.77
40047;BMP280;31510;48.122;11.576;2022-08-19T13:37:05;95225.19;;;22.81
40047;BMP280;31510;48.122;11.576;2022-08-19T13:39:34;95226.22;;;22.78
40047;BMP280;31510;48.122;11.576;2022-08-19T13:41:59;95217.16;;;22.76
40047;BMP280;31510;48.122;11.576;2022-08-19T13:44:26;95218.72;;;22.71
40047;BMP280;31510;48.122;11.576;2022-08-19T13:46:55;95218.97;;;22.60
40047;BMP280;31510;48.122;11.576;2022-08-19T13:49:27;95221.03;;;22.54
40047;BMP280;31510;48.122;11.576;2022-08-19T13:51:55;95223.81;;;22.42
40047;BMP280;31510;48.122;11.576;2022-08-19T13:54:20;95222.88;;;22.26
40047;BMP280;31510;48.122;11.576;2022-08-19T13:56:46;95225.28;;;22.17
40047;BMP280;31510;48.122;11.576;2022-08-19T13:59:12;95224.97;;;22.07
40047;BMP280;31510;48.122;11.576;2022-08-19T14:01:39;95226.84;;;22.00
40047;BMP280;31510;48.122;11.576;2022-08-19T14:04:04;95231.66;;;21.94
40047;BMP280;31510;48.122;11.576;2022-08-19T14:06:31;95238.44;;;21.87
40047;BMP280;31510;48.122;11.576;2022-08-19T14:08:56;95234.38;;;21.81
40047;BMP280;31510;48.122;11.576;2022-08-19T14:11:21;95239.47;;;21.71
40047;BMP280;31510;48.122;11.576;2022-08-19T14:13:49;95231.94;;;21.64
40047;BMP280;31510;48.122;11.576;2022-08-19T14:16:16;95235.16;;;21.63
40047;BMP280;31510;48.122;11.576;2022-08-19T14:18:42;95230.38;;;21.69